sensor_id;sensor_type;location;lat;lon;timestamp;P1;durP1;ratioP1;P2;durP2;ratioP2
72517;SDS011;60540;51.178;6.738;2022-10-16T00:01:18;5.45;;;1.90;;
72517;SDS011;60540;51.178;6.738;2022-10-16T00:03:46;5.10;;;2.00;;
72517;SDS011;60540;51.178;6.738;2022-10-16T00:06:12;3.25;;;1.70;;
72517;SDS011;60540;51.178;6.738;2022-10-16T00:08:39;4.43;;;2.10;;
72517;SDS011;60540;51.178;6.738;2022-10-16T00:11:09;4.30;;;1.95;;
72517;SDS011;60540;51.178;6.738;2022-10-16T00:13:36;5.15;;;1.90;;
72517;SDS011;60540;51.178;6.738;2022-10-16T00:16:03;3.80;;;1.85;;
72517;SDS011;60540;51.178;6.738;2022-10-16T00:18:29;5.32;;;1.65;;
72517;SDS011;60540;51.178;6.738;2022-10-16T00:20:55;5.50;;;1.73;;
72517;SDS011;60540;51.178;6.738;2022-10-16T00:23:26;3.55;;;1.58;;
72517;SDS011;60540;51.178;6.738;2022-10-16T00:25:58;3.65;;;1.33;;
72517;SDS011;60540;51.178;6.738;2022-10-16T00:28:25;6.97;;;1.73;;
72517;SDS011;60540;51.178;6.738;2022-10-16T00:30:50;3.28;;;1.50;;
72517;SDS011;60540;51.178;6.738;2022-10-16T00:33:16;3.38;;;1.65;;
72517;SDS011;60540;51.178;6.738;2022-10-16T00:35:42;5.75;;;1.92;;
72517;SDS011;60540;51.178;6.738;2022-10-16T00:38:07;4.13;;;1.55;;
72517;SDS011;60540;51.178;6.738;2022-10-16T00:40:33;3.95;;;1.73;;
72517;SDS011;60540;51.178;6.738;2022-10-16T00:42:58;3.38;;;1.42;;
72517;SDS011;60540;51.178;6.738;2022-10-16T00:45:24;4.85;;;1.65;;
72517;SDS011;60540;51.178;6.738;2022-10-16T00:47:50;3.45;;;1.52;;
72517;SDS011;60540;51.178;6.738;2022-10-16T00:52:43;3.60;;;1.47;;
72517;SDS011;60540;51.178;6.738;2022-10-16T00:55:11;3.63;;;1.38;;
72517;SDS011;60540;51.178;6.738;2022-10-16T00:57:37;3.22;;;1.50;;
72517;SDS011;60540;51.178;6.738;2022-10-16T01:00:06;5.15;;;2.13;;
72517;SDS011;60540;51.178;6.738;2022-10-16T01:02:33;3.47;;;1.40;;
72517;SDS011;60540;51.178;6.738;2022-10-16T01:04:59;2.47;;;1.23;;
72517;SDS011;60540;51.178;6.738;2022-10-16T01:15:59;2.95;;;1.13;;
72517;SDS011;60540;51.178;6.738;2022-10-16T01:19:05;2.50;;;1.30;;
72517;SDS011;60540;51.178;6.738;2022-10-16T01:21:31;3.70;;;1.55;;
72517;SDS011;60540;51.178;6.738;2022-10-16T01:32:10;3.67;;;1.30;;
72517;SDS011;60540;51.178;6.738;2022-10-16T01:34:59;2.35;;;1.10;;
72517;SDS011;60540;51.178;6.738;2022-10-16T01:37:32;2.90;;;1.20;;
72517;SDS011;60540;51.178;6.738;2022-10-16T01:40:01;4.80;;;1.52;;
72517;SDS011;60540;51.178;6.738;2022-10-16T01:42:30;3.03;;;1.27;;
72517;SDS011;60540;51.178;6.738;2022-10-16T01:45:00;3.30;;;1.25;;
72517;SDS011;60540;51.178;6.738;2022-10-16T01:47:26;4.35;;;1.33;;
72517;SDS011;60540;51.178;6.738;2022-10-16T01:49:52;4.93;;;1.40;;
72517;SDS011;60540;51.178;6.738;2022-10-16T01:52:19;3.22;;;1.42;;
72517;SDS011;60540;51.178;6.738;2022-10-16T01:54:47;3.38;;;1.50;;
72517;SDS011;60540;51.178;6.738;2022-10-16T01:57:14;2.65;;;1.20;;
72517;SDS011;60540;51.178;6.738;2022-10-16T01:59:46;4.00;;;1.58;;
72517;SDS011;60540;51.178;6.738;2022-10-16T02:02:13;3.78;;;1.33;;
72517;SDS011;60540;51.178;6.738;2022-10-16T02:04:42;4.28;;;1.73;;
72517;SDS011;60540;51.178;6.738;2022-10-16T02:07:09;6.03;;;1.27;;
72517;SDS011;60540;51.178;6.738;2022-10-16T02:09:35;3.45;;;1.40;;
72517;SDS011;60540;51.178;6.738;2022-10-16T02:12:03;2.72;;;1.27;;
72517;SDS011;60540;51.178;6.738;2022-10-16T02:14:33;2.25;;;1.20;;
72517;SDS011;60540;51.178;6.738;2022-10-16T02:16:59;2.55;;;1.20;;
72517;SDS011;60540;51.178;6.738;2022-10-16T02:19:25;3.03;;;1.25;;
72517;SDS011;60540;51.178;6.738;2022-10-16T02:21:52;2.50;;;1.20;;
72517;SDS011;60540;51.178;6.738;2022-10-16T02:26:52;2.67;;;1.10;;
72517;SDS011;60540;51.178;6.738;2022-10-16T02:29:23;2.88;;;1.30;;
72517;SDS011;60540;51.178;6.738;2022-10-16T02:31:52;2.88;;;1.50;;
72517;SDS011;60540;51.178;6.738;2022-10-16T02:34:20;3.40;;;1.20;;
72517;SDS011;60540;51.178;6.738;2022-10-16T02:36:48;4.35;;;2.03;;
72517;SDS011;60540;51.178;6.738;2022-10-16T02:39:14;1.65;;;1.00;;
72517;SDS011;60540;51.178;6.738;2022-10-16T02:41:40;3.67;;;1.10;;
72517;SDS011;60540;51.178;6.738;2022-10-16T02:44:05;1.80;;;1.10;;
72517;SDS011;60540;51.178;6.738;2022-10-16T02:46:31;2.83;;;1.20;;
72517;SDS011;60540;51.178;6.738;2022-10-16T02:48:57;2.67;;;1.08;;
72517;SDS011;60540;51.178;6.738;2022-10-16T02:51:22;3.75;;;1.20;;
72517;SDS011;60540;51.178;6.738;2022-10-16T02:53:48;1.90;;;1.00;;
72517;SDS011;60540;51.178;6.738;2022-10-16T02:56:13;2.20;;;1.30;;
72517;SDS011;60540;51.178;6.738;2022-10-16T02:58:39;2.28;;;1.20;;
72517;SDS011;60540;51.178;6.738;2022-10-16T03:01:04;1.85;;;1.00;;
72517;SDS011;60540;51.178;6.738;2022-10-16T03:03:30;2.67;;;1.30;;
72517;SDS011;60540;51.178;6.738;2022-10-16T03:05:56;2.13;;;1.23;;
72517;SDS011;60540;51.178;6.738;2022-10-16T03:08:21;2.08;;;1.00;;
72517;SDS011;60540;51.178;6.738;2022-10-16T03:10:49;4.57;;;1.63;;
72517;SDS011;60540;51.178;6.738;2022-10-16T03:13:15;3.25;;;1.10;;
72517;SDS011;60540;51.178;6.738;2022-10-16T03:15:41;2.03;;;1.00;;
72517;SDS011;60540;51.178;6.738;2022-10-16T03:18:06;2.75;;;1.50;;
72517;SDS011;60540;51.178;6.738;2022-10-16T03:20:32;2.10;;;1.17;;
72517;SDS011;60540;51.178;6.738;2022-10-16T03:22:58;3.05;;;1.00;;
72517;SDS011;60540;51.178;6.738;2022-10-16T03:25:23;2.47;;;1.20;;
72517;SDS011;60540;51.178;6.738;2022-10-16T03:27:49;2.88;;;1.30;;
72517;SDS011;60540;51.178;6.738;2022-10-16T03:30:14;3.05;;;1.20;;
72517;SDS011;60540;51.178;6.738;2022-10-16T03:32:41;4.03;;;1.45;;
72517;SDS011;60540;51.178;6.738;2022-10-16T03:35:07;2.08;;;1.10;;
72517;SDS011;60540;51.178;6.738;2022-10-16T03:37:32;2.45;;;1.30;;
72517;SDS011;60540;51.178;6.738;2022-10-16T03:39:58;2.90;;;1.10;;
72517;SDS011;60540;51.178;6.738;2022-10-16T03:42:24;3.30;;;1.20;;
72517;SDS011;60540;51.178;6.738;2022-10-16T03:44:49;3.65;;;1.20;;
72517;SDS011;60540;51.178;6.738;2022-10-16T03:47:15;2.13;;;1.20;;
72517;SDS011;60540;51.178;6.738;2022-10-16T03:49:41;2.85;;;1.50;;
72517;SDS011;60540;51.178;6.738;2022-10-16T03:52:06;1.65;;;1.10;;
72517;SDS011;60540;51.178;6.738;2022-10-16T03:54:32;2.53;;;1.20;;
72517;SDS011;60540;51.178;6.738;2022-10-16T03:56:57;2.40;;;1.17;;
72517;SDS011;60540;51.178;6.738;2022-10-16T03:59:23;2.50;;;1.20;;
72517;SDS011;60540;51.178;6.738;2022-10-16T04:01:48;1.42;;;1.00;;
72517;SDS011;60540;51.178;6.738;2022-10-16T04:04:14;1.52;;;0.90;;
72517;SDS011;60540;51.178;6.738;2022-10-16T04:06:39;1.98;;;1.10;;
72517;SDS011;60540;51.178;6.738;2022-10-16T04:09:05;3.15;;;1.20;;
72517;SDS011;60540;51.178;6.738;2022-10-16T04:11:30;2.42;;;1.13;;
72517;SDS011;60540;51.178;6.738;2022-10-16T04:13:56;2.45;;;1.30;;
72517;SDS011;60540;51.178;6.738;2022-10-16T04:16:22;3.03;;;1.25;;
72517;SDS011;60540;51.178;6.738;2022-10-16T04:18:47;3.47;;;1.15;;
72517;SDS011;60540;51.178;6.738;2022-10-16T04:21:13;1.92;;;1.08;;
72517;SDS011;60540;51.178;6.738;2022-10-16T04:23:38;2.67;;;1.02;;
72517;SDS011;60540;51.178;6.738;2022-10-16T04:26:04;2.13;;;1.23;;
72517;SDS011;60540;51.178;6.738;2022-10-16T04:28:29;2.85;;;1.20;;
72517;SDS011;60540;51.178;6.738;2022-10-16T04:30:55;4.63;;;1.20;;
72517;SDS011;60540;51.178;6.738;2022-10-16T04:33:21;2.22;;;1.30;;
72517;SDS011;60540;51.178;6.738;2022-10-16T04:35:46;3.08;;;1.20;;
72517;SDS011;60540;51.178;6.738;2022-10-16T04:38:12;3.20;;;1.48;;
72517;SDS011;60540;51.178;6.738;2022-10-16T04:40:37;2.47;;;1.25;;
72517;SDS011;60540;51.178;6.738;2022-10-16T04:43:03;3.13;;;1.40;;
72517;SDS011;60540;51.178;6.738;2022-10-16T04:45:29;2.50;;;1.20;;
72517;SDS011;60540;51.178;6.738;2022-10-16T04:47:58;2.10;;;1.20;;
72517;SDS011;60540;51.178;6.738;2022-10-16T04:50:24;3.22;;;1.38;;
72517;SDS011;60540;51.178;6.738;2022-10-16T04:52:50;2.88;;;1.13;;
72517;SDS011;60540;51.178;6.738;2022-10-16T04:55:15;3.08;;;1.20;;
72517;SDS011;60540;51.178;6.738;2022-10-16T04:57:41;2.40;;;1.08;;
72517;SDS011;60540;51.178;6.738;2022-10-16T05:00:07;2.13;;;1.05;;
72517;SDS011;60540;51.178;6.738;2022-10-16T05:02:33;2.70;;;1.00;;
72517;SDS011;60540;51.178;6.738;2022-10-16T05:04:59;2.28;;;1.10;;
72517;SDS011;60540;51.178;6.738;2022-10-16T05:07:24;2.67;;;1.25;;
72517;SDS011;60540;51.178;6.738;2022-10-16T05:09:50;5.60;;;1.20;;
72517;SDS011;60540;51.178;6.738;2022-10-16T05:12:15;2.85;;;1.40;;
72517;SDS011;60540;51.178;6.738;2022-10-16T05:14:41;3.20;;;1.30;;
72517;SDS011;60540;51.178;6.738;2022-10-16T05:17:06;1.85;;;1.10;;
72517;SDS011;60540;51.178;6.738;2022-10-16T05:19:32;1.95;;;1.10;;
72517;SDS011;60540;51.178;6.738;2022-10-16T05:21:58;3.58;;;1.20;;
72517;SDS011;60540;51.178;6.738;2022-10-16T05:24:23;1.98;;;1.15;;
72517;SDS011;60540;51.178;6.738;2022-10-16T05:26:49;3.28;;;1.00;;
72517;SDS011;60540;51.178;6.738;2022-10-16T05:29:15;1.98;;;1.10;;
72517;SDS011;60540;51.178;6.738;2022-10-16T05:31:40;2.35;;;1.10;;
72517;SDS011;60540;51.178;6.738;2022-10-16T05:34:06;1.60;;;0.90;;
72517;SDS011;60540;51.178;6.738;2022-10-16T05:36:31;2.20;;;1.10;;
72517;SDS011;60540;51.178;6.738;2022-10-16T05:38:57;1.30;;;0.88;;
72517;SDS011;60540;51.178;6.738;2022-10-16T05:41:22;1.88;;;1.00;;
72517;SDS011;60540;51.178;6.738;2022-10-16T05:43:50;6.18;;;1.20;;
72517;SDS011;60540;51.178;6.738;2022-10-16T05:46:16;1.92;;;1.00;;
72517;SDS011;60540;51.178;6.738;2022-10-16T05:48:42;2.33;;;1.00;;
72517;SDS011;60540;51.178;6.738;2022-10-16T05:51:12;3.22;;;1.00;;
72517;SDS011;60540;51.178;6.738;2022-10-16T05:53:38;1.50;;;0.85;;
72517;SDS011;60540;51.178;6.738;2022-10-16T05:56:05;1.40;;;0.90;;
72517;SDS011;60540;51.178;6.738;2022-10-16T05:58:33;2.35;;;0.90;;
72517;SDS011;60540;51.178;6.738;2022-10-16T06:01:02;2.40;;;1.27;;
72517;SDS011;60540;51.178;6.738;2022-10-16T06:03:32;4.00;;;0.95;;
72517;SDS011;60540;51.178;6.738;2022-10-16T06:05:58;1.98;;;1.00;;
72517;SDS011;60540;51.178;6.738;2022-10-16T06:08:24;4.20;;;1.20;;
72517;SDS011;60540;51.178;6.738;2022-10-16T06:11:03;1.95;;;1.05;;
72517;SDS011;60540;51.178;6.738;2022-10-16T06:13:29;1.85;;;1.10;;
72517;SDS011;60540;51.178;6.738;2022-10-16T06:15:56;1.55;;;0.90;;
72517;SDS011;60540;51.178;6.738;2022-10-16T06:18:22;2.30;;;1.10;;
72517;SDS011;60540;51.178;6.738;2022-10-16T06:20:48;2.78;;;1.17;;
72517;SDS011;60540;51.178;6.738;2022-10-16T06:23:14;3.55;;;1.08;;
72517;SDS011;60540;51.178;6.738;2022-10-16T06:25:39;1.55;;;1.00;;
72517;SDS011;60540;51.178;6.738;2022-10-16T06:28:05;3.30;;;1.02;;
72517;SDS011;60540;51.178;6.738;2022-10-16T06:30:30;2.33;;;1.08;;
72517;SDS011;60540;51.178;6.738;2022-10-16T06:32:56;2.08;;;1.10;;
72517;SDS011;60540;51.178;6.738;2022-10-16T06:35:21;2.13;;;1.13;;
72517;SDS011;60540;51.178;6.738;2022-10-16T06:37:47;1.80;;;0.93;;
72517;SDS011;60540;51.178;6.738;2022-10-16T06:40:12;1.58;;;0.90;;
72517;SDS011;60540;51.178;6.738;2022-10-16T06:45:05;2.20;;;0.95;;
72517;SDS011;60540;51.178;6.738;2022-10-16T06:47:31;2.10;;;1.08;;
72517;SDS011;60540;51.178;6.738;2022-10-16T06:49:56;2.22;;;1.02;;
72517;SDS011;60540;51.178;6.738;2022-10-16T06:52:22;2.22;;;1.20;;
72517;SDS011;60540;51.178;6.738;2022-10-16T06:54:47;2.67;;;1.33;;
72517;SDS011;60540;51.178;6.738;2022-10-16T06:57:14;2.78;;;1.30;;
72517;SDS011;60540;51.178;6.738;2022-10-16T06:59:40;3.30;;;1.10;;
72517;SDS011;60540;51.178;6.738;2022-10-16T07:02:05;2.80;;;1.23;;
72517;SDS011;60540;51.178;6.738;2022-10-16T07:04:32;2.50;;;1.35;;
72517;SDS011;60540;51.178;6.738;2022-10-16T07:06:59;2.60;;;1.27;;
72517;SDS011;60540;51.178;6.738;2022-10-16T07:09:25;1.77;;;1.10;;
72517;SDS011;60540;51.178;6.738;2022-10-16T07:11:51;2.08;;;1.20;;
72517;SDS011;60540;51.178;6.738;2022-10-16T07:14:17;2.40;;;1.30;;
72517;SDS011;60540;51.178;6.738;2022-10-16T07:16:45;4.30;;;1.50;;
72517;SDS011;60540;51.178;6.738;2022-10-16T07:19:11;3.55;;;1.40;;
72517;SDS011;60540;51.178;6.738;2022-10-16T07:21:39;2.75;;;1.23;;
72517;SDS011;60540;51.178;6.738;2022-10-16T07:24:05;5.63;;;1.63;;
72517;SDS011;60540;51.178;6.738;2022-10-16T07:26:33;4.38;;;1.50;;
72517;SDS011;60540;51.178;6.738;2022-10-16T07:29:00;3.38;;;1.27;;
72517;SDS011;60540;51.178;6.738;2022-10-16T07:31:25;3.75;;;1.45;;
72517;SDS011;60540;51.178;6.738;2022-10-16T07:33:51;2.30;;;1.20;;
72517;SDS011;60540;51.178;6.738;2022-10-16T07:36:17;3.15;;;1.20;;
72517;SDS011;60540;51.178;6.738;2022-10-16T07:41:13;2.47;;;1.23;;
72517;SDS011;60540;51.178;6.738;2022-10-16T07:43:44;4.30;;;1.27;;
72517;SDS011;60540;51.178;6.738;2022-10-16T07:46:11;2.90;;;1.38;;
72517;SDS011;60540;51.178;6.738;2022-10-16T07:48:36;3.30;;;1.30;;
72517;SDS011;60540;51.178;6.738;2022-10-16T07:51:03;3.50;;;1.27;;
72517;SDS011;60540;51.178;6.738;2022-10-16T07:53:30;2.40;;;1.20;;
72517;SDS011;60540;51.178;6.738;2022-10-16T07:55:59;2.63;;;1.20;;
72517;SDS011;60540;51.178;6.738;2022-10-16T07:58:32;2.97;;;1.38;;
72517;SDS011;60540;51.178;6.738;2022-10-16T08:00:58;2.67;;;1.23;;
72517;SDS011;60540;51.178;6.738;2022-10-16T08:03:24;3.83;;;1.90;;
72517;SDS011;60540;51.178;6.738;2022-10-16T08:05:51;3.40;;;1.40;;
72517;SDS011;60540;51.178;6.738;2022-10-16T08:08:17;4.53;;;1.65;;
72517;SDS011;60540;51.178;6.738;2022-10-16T08:10:43;3.35;;;1.45;;
72517;SDS011;60540;51.178;6.738;2022-10-16T08:13:09;2.28;;;1.35;;
72517;SDS011;60540;51.178;6.738;2022-10-16T08:15:34;5.15;;;1.80;;
72517;SDS011;60540;51.178;6.738;2022-10-16T08:18:01;2.72;;;1.52;;
72517;SDS011;60540;51.178;6.738;2022-10-16T08:20:28;3.50;;;1.60;;
72517;SDS011;60540;51.178;6.738;2022-10-16T08:25:23;4.43;;;1.67;;
72517;SDS011;60540;51.178;6.738;2022-10-16T08:27:49;3.78;;;1.63;;
72517;SDS011;60540;51.178;6.738;2022-10-16T08:30:15;4.05;;;1.35;;
72517;SDS011;60540;51.178;6.738;2022-10-16T08:32:42;3.42;;;1.25;;
72517;SDS011;60540;51.178;6.738;2022-10-16T08:35:08;2.83;;;1.77;;
72517;SDS011;60540;51.178;6.738;2022-10-16T08:37:35;3.03;;;1.20;;
72517;SDS011;60540;51.178;6.738;2022-10-16T08:40:00;2.33;;;1.30;;
72517;SDS011;60540;51.178;6.738;2022-10-16T08:42:36;2.90;;;1.27;;
72517;SDS011;60540;51.178;6.738;2022-10-16T08:45:34;2.45;;;1.20;;
72517;SDS011;60540;51.178;6.738;2022-10-16T08:48:09;4.63;;;1.13;;
72517;SDS011;60540;51.178;6.738;2022-10-16T08:50:39;2.90;;;1.10;;
72517;SDS011;60540;51.178;6.738;2022-10-16T08:53:05;2.28;;;1.00;;
72517;SDS011;60540;51.178;6.738;2022-10-16T08:55:39;2.05;;;0.98;;
72517;SDS011;60540;51.178;6.738;2022-10-16T08:58:11;4.18;;;1.30;;
72517;SDS011;60540;51.178;6.738;2022-10-16T09:00:38;2.70;;;1.60;;
72517;SDS011;60540;51.178;6.738;2022-10-16T09:08:32;4.90;;;1.10;;
72517;SDS011;60540;51.178;6.738;2022-10-16T09:11:52;4.00;;;1.00;;
72517;SDS011;60540;51.178;6.738;2022-10-16T09:17:00;1.27;;;0.70;;
72517;SDS011;60540;51.178;6.738;2022-10-16T09:19:34;2.58;;;1.00;;
72517;SDS011;60540;51.178;6.738;2022-10-16T09:22:10;2.90;;;0.90;;
72517;SDS011;60540;51.178;6.738;2022-10-16T09:24:38;3.00;;;1.00;;
72517;SDS011;60540;51.178;6.738;2022-10-16T09:27:03;2.40;;;0.60;;
72517;SDS011;60540;51.178;6.738;2022-10-16T09:29:29;1.27;;;0.77;;
72517;SDS011;60540;51.178;6.738;2022-10-16T09:31:54;0.93;;;0.63;;
72517;SDS011;60540;51.178;6.738;2022-10-16T09:34:26;1.33;;;0.70;;
72517;SDS011;60540;51.178;6.738;2022-10-16T09:39:19;1.23;;;0.60;;
72517;SDS011;60540;51.178;6.738;2022-10-16T09:41:45;4.13;;;0.75;;
72517;SDS011;60540;51.178;6.738;2022-10-16T09:44:27;2.17;;;0.75;;
72517;SDS011;60540;51.178;6.738;2022-10-16T09:47:03;2.63;;;0.80;;
72517;SDS011;60540;51.178;6.738;2022-10-16T09:49:30;3.05;;;0.75;;
72517;SDS011;60540;51.178;6.738;2022-10-16T09:52:03;2.53;;;0.80;;
72517;SDS011;60540;51.178;6.738;2022-10-16T09:54:48;2.40;;;0.75;;
72517;SDS011;60540;51.178;6.738;2022-10-16T09:57:24;5.03;;;1.00;;
72517;SDS011;60540;51.178;6.738;2022-10-16T09:59:59;4.05;;;0.75;;
72517;SDS011;60540;51.178;6.738;2022-10-16T10:02:32;0.77;;;0.55;;
72517;SDS011;60540;51.178;6.738;2022-10-16T10:05:00;1.17;;;0.65;;
72517;SDS011;60540;51.178;6.738;2022-10-16T10:07:27;1.90;;;0.73;;
72517;SDS011;60540;51.178;6.738;2022-10-16T10:09:54;5.18;;;0.90;;
72517;SDS011;60540;51.178;6.738;2022-10-16T10:12:23;2.88;;;0.80;;
72517;SDS011;60540;51.178;6.738;2022-10-16T10:14:56;2.03;;;0.60;;
72517;SDS011;60540;51.178;6.738;2022-10-16T10:17:24;1.70;;;0.60;;
72517;SDS011;60540;51.178;6.738;2022-10-16T10:19:55;3.10;;;0.80;;
72517;SDS011;60540;51.178;6.738;2022-10-16T10:22:24;3.00;;;0.80;;
72517;SDS011;60540;51.178;6.738;2022-10-16T10:27:24;2.67;;;0.70;;
72517;SDS011;60540;51.178;6.738;2022-10-16T10:30:03;2.03;;;0.60;;
72517;SDS011;60540;51.178;6.738;2022-10-16T10:32:41;3.50;;;0.70;;
72517;SDS011;60540;51.178;6.738;2022-10-16T10:35:30;1.15;;;0.50;;
72517;SDS011;60540;51.178;6.738;2022-10-16T10:38:05;1.63;;;0.70;;
72517;SDS011;60540;51.178;6.738;2022-10-16T10:40:49;2.90;;;0.80;;
72517;SDS011;60540;51.178;6.738;2022-10-16T10:46:14;3.20;;;1.02;;
72517;SDS011;60540;51.178;6.738;2022-10-16T10:51:53;4.65;;;0.80;;
72517;SDS011;60540;51.178;6.738;2022-10-16T10:59:58;1.23;;;0.77;;
72517;SDS011;60540;51.178;6.738;2022-10-16T11:08:16;1.35;;;1.10;;
72517;SDS011;60540;51.178;6.738;2022-10-16T11:11:23;3.05;;;0.70;;
72517;SDS011;60540;51.178;6.738;2022-10-16T11:14:05;3.40;;;0.60;;
72517;SDS011;60540;51.178;6.738;2022-10-16T11:16:38;2.95;;;0.70;;
72517;SDS011;60540;51.178;6.738;2022-10-16T11:19:13;1.63;;;0.57;;
72517;SDS011;60540;51.178;6.738;2022-10-16T11:21:44;1.10;;;0.55;;
72517;SDS011;60540;51.178;6.738;2022-10-16T11:24:18;2.03;;;0.50;;
72517;SDS011;60540;51.178;6.738;2022-10-16T11:26:47;2.72;;;0.60;;
72517;SDS011;60540;51.178;6.738;2022-10-16T11:29:17;2.88;;;0.60;;
72517;SDS011;60540;51.178;6.738;2022-10-16T11:31:53;1.55;;;0.73;;
72517;SDS011;60540;51.178;6.738;2022-10-16T11:37:01;2.38;;;0.70;;
72517;SDS011;60540;51.178;6.738;2022-10-16T11:39:30;2.17;;;0.82;;
72517;SDS011;60540;51.178;6.738;2022-10-16T11:42:01;1.30;;;0.63;;
72517;SDS011;60540;51.178;6.738;2022-10-16T11:47:24;3.15;;;1.40;;
72517;SDS011;60540;51.178;6.738;2022-10-16T11:53:01;3.10;;;0.60;;
72517;SDS011;60540;51.178;6.738;2022-10-16T11:55:36;3.33;;;0.82;;
72517;SDS011;60540;51.178;6.738;2022-10-16T11:58:06;1.65;;;0.68;;
72517;SDS011;60540;51.178;6.738;2022-10-16T12:00:57;2.25;;;0.70;;
72517;SDS011;60540;51.178;6.738;2022-10-16T12:03:28;2.38;;;0.52;;
72517;SDS011;60540;51.178;6.738;2022-10-16T12:08:36;2.83;;;0.73;;
72517;SDS011;60540;51.178;6.738;2022-10-16T12:11:06;1.58;;;0.60;;
72517;SDS011;60540;51.178;6.738;2022-10-16T12:13:37;1.23;;;0.50;;
72517;SDS011;60540;51.178;6.738;2022-10-16T12:16:05;2.15;;;0.95;;
72517;SDS011;60540;51.178;6.738;2022-10-16T12:18:32;2.35;;;0.50;;
72517;SDS011;60540;51.178;6.738;2022-10-16T12:20:58;1.13;;;0.60;;
72517;SDS011;60540;51.178;6.738;2022-10-16T12:23:29;1.73;;;0.80;;
72517;SDS011;60540;51.178;6.738;2022-10-16T12:25:56;0.88;;;0.50;;
72517;SDS011;60540;51.178;6.738;2022-10-16T12:28:31;2.13;;;0.50;;
72517;SDS011;60540;51.178;6.738;2022-10-16T12:30:59;1.52;;;0.50;;
72517;SDS011;60540;51.178;6.738;2022-10-16T12:35:52;1.80;;;0.70;;
72517;SDS011;60540;51.178;6.738;2022-10-16T12:38:25;1.45;;;0.70;;
72517;SDS011;60540;51.178;6.738;2022-10-16T12:41:02;3.25;;;0.88;;
72517;SDS011;60540;51.178;6.738;2022-10-16T12:43:40;2.63;;;0.90;;
72517;SDS011;60540;51.178;6.738;2022-10-16T12:48:33;0.73;;;0.50;;
72517;SDS011;60540;51.178;6.738;2022-10-16T12:53:57;1.73;;;0.60;;
72517;SDS011;60540;51.178;6.738;2022-10-16T13:05:13;1.45;;;0.60;;
72517;SDS011;60540;51.178;6.738;2022-10-16T13:10:54;1.33;;;0.60;;
72517;SDS011;60540;51.178;6.738;2022-10-16T13:19:17;3.97;;;0.70;;
72517;SDS011;60540;51.178;6.738;2022-10-16T13:24:56;3.05;;;0.60;;
72517;SDS011;60540;51.178;6.738;2022-10-16T13:30:02;4.10;;;0.90;;
72517;SDS011;60540;51.178;6.738;2022-10-16T13:32:37;2.92;;;0.90;;
72517;SDS011;60540;51.178;6.738;2022-10-16T13:35:15;1.70;;;0.75;;
72517;SDS011;60540;51.178;6.738;2022-10-16T13:37:44;3.65;;;1.02;;
72517;SDS011;60540;51.178;6.738;2022-10-16T13:40:18;3.30;;;1.05;;
72517;SDS011;60540;51.178;6.738;2022-10-16T13:42:46;4.93;;;1.27;;
72517;SDS011;60540;51.178;6.738;2022-10-16T13:45:18;2.90;;;1.00;;
72517;SDS011;60540;51.178;6.738;2022-10-16T13:47:49;2.63;;;0.85;;
72517;SDS011;60540;51.178;6.738;2022-10-16T13:50:16;2.03;;;0.80;;
72517;SDS011;60540;51.178;6.738;2022-10-16T13:52:43;3.45;;;0.90;;
72517;SDS011;60540;51.178;6.738;2022-10-16T13:55:15;2.80;;;0.90;;
72517;SDS011;60540;51.178;6.738;2022-10-16T13:57:42;3.95;;;0.70;;
72517;SDS011;60540;51.178;6.738;2022-10-16T14:00:17;3.67;;;1.13;;
72517;SDS011;60540;51.178;6.738;2022-10-16T14:02:50;2.15;;;0.70;;
72517;SDS011;60540;51.178;6.738;2022-10-16T14:05:18;4.20;;;0.80;;
72517;SDS011;60540;51.178;6.738;2022-10-16T14:07:47;2.30;;;0.70;;
72517;SDS011;60540;51.178;6.738;2022-10-16T14:10:27;1.65;;;0.80;;
72517;SDS011;60540;51.178;6.738;2022-10-16T14:12:59;2.35;;;0.85;;
72517;SDS011;60540;51.178;6.738;2022-10-16T14:15:26;1.65;;;0.70;;
72517;SDS011;60540;51.178;6.738;2022-10-16T14:17:52;4.28;;;0.73;;
72517;SDS011;60540;51.178;6.738;2022-10-16T14:20:18;3.78;;;0.77;;
72517;SDS011;60540;51.178;6.738;2022-10-16T14:22:44;2.75;;;0.70;;
72517;SDS011;60540;51.178;6.738;2022-10-16T14:27:55;4.75;;;1.00;;
72517;SDS011;60540;51.178;6.738;2022-10-16T14:30:29;4.30;;;1.30;;
72517;SDS011;60540;51.178;6.738;2022-10-16T14:32:56;2.65;;;0.90;;
72517;SDS011;60540;51.178;6.738;2022-10-16T14:35:27;4.43;;;0.90;;
72517;SDS011;60540;51.178;6.738;2022-10-16T14:37:58;2.20;;;0.90;;
72517;SDS011;60540;51.178;6.738;2022-10-16T14:40:26;3.30;;;1.00;;
72517;SDS011;60540;51.178;6.738;2022-10-16T14:42:56;2.22;;;1.13;;
72517;SDS011;60540;51.178;6.738;2022-10-16T14:45:22;4.93;;;1.60;;
72517;SDS011;60540;51.178;6.738;2022-10-16T14:47:51;3.75;;;1.40;;
72517;SDS011;60540;51.178;6.738;2022-10-16T14:50:18;3.38;;;1.30;;
72517;SDS011;60540;51.178;6.738;2022-10-16T14:52:44;3.33;;;0.88;;
72517;SDS011;60540;51.178;6.738;2022-10-16T14:55:10;2.63;;;0.90;;
72517;SDS011;60540;51.178;6.738;2022-10-16T14:57:36;4.68;;;1.00;;
72517;SDS011;60540;51.178;6.738;2022-10-16T15:00:04;4.05;;;1.17;;
72517;SDS011;60540;51.178;6.738;2022-10-16T15:02:40;1.60;;;0.80;;
72517;SDS011;60540;51.178;6.738;2022-10-16T15:07:38;2.83;;;0.80;;
72517;SDS011;60540;51.178;6.738;2022-10-16T15:10:04;2.03;;;0.82;;
72517;SDS011;60540;51.178;6.738;2022-10-16T15:12:30;2.88;;;0.77;;
72517;SDS011;60540;51.178;6.738;2022-10-16T15:14:55;3.47;;;0.95;;
72517;SDS011;60540;51.178;6.738;2022-10-16T15:17:21;2.53;;;0.93;;
72517;SDS011;60540;51.178;6.738;2022-10-16T15:19:46;3.50;;;0.73;;
72517;SDS011;60540;51.178;6.738;2022-10-16T15:22:12;4.03;;;1.27;;
72517;SDS011;60540;51.178;6.738;2022-10-16T15:24:38;3.78;;;0.90;;
72517;SDS011;60540;51.178;6.738;2022-10-16T15:27:03;3.47;;;1.10;;
72517;SDS011;60540;51.178;6.738;2022-10-16T15:29:29;3.15;;;0.95;;
72517;SDS011;60540;51.178;6.738;2022-10-16T15:31:55;3.88;;;1.10;;
72517;SDS011;60540;51.178;6.738;2022-10-16T15:34:20;4.68;;;1.33;;
72517;SDS011;60540;51.178;6.738;2022-10-16T15:36:46;3.05;;;1.20;;
72517;SDS011;60540;51.178;6.738;2022-10-16T15:39:16;2.58;;;1.00;;
72517;SDS011;60540;51.178;6.738;2022-10-16T15:41:43;1.90;;;0.80;;
72517;SDS011;60540;51.178;6.738;2022-10-16T15:44:09;3.78;;;1.67;;
72517;SDS011;60540;51.178;6.738;2022-10-16T15:46:35;4.68;;;1.45;;
72517;SDS011;60540;51.178;6.738;2022-10-16T15:49:02;3.35;;;1.17;;
72517;SDS011;60540;51.178;6.738;2022-10-16T15:51:28;2.53;;;1.00;;
72517;SDS011;60540;51.178;6.738;2022-10-16T15:53:57;2.08;;;1.00;;
72517;SDS011;60540;51.178;6.738;2022-10-16T15:56:24;3.10;;;0.90;;
72517;SDS011;60540;51.178;6.738;2022-10-16T16:01:16;3.92;;;1.02;;
72517;SDS011;60540;51.178;6.738;2022-10-16T16:03:42;3.83;;;1.23;;
72517;SDS011;60540;51.178;6.738;2022-10-16T16:06:08;3.55;;;1.25;;
72517;SDS011;60540;51.178;6.738;2022-10-16T16:08:35;2.88;;;1.00;;
72517;SDS011;60540;51.178;6.738;2022-10-16T16:11:05;3.08;;;1.17;;
72517;SDS011;60540;51.178;6.738;2022-10-16T16:13:38;2.63;;;1.00;;
72517;SDS011;60540;51.178;6.738;2022-10-16T16:16:05;3.38;;;1.75;;
72517;SDS011;60540;51.178;6.738;2022-10-16T16:18:35;2.10;;;0.93;;
72517;SDS011;60540;51.178;6.738;2022-10-16T16:21:01;2.92;;;1.20;;
72517;SDS011;60540;51.178;6.738;2022-10-16T16:23:26;5.13;;;2.40;;
72517;SDS011;60540;51.178;6.738;2022-10-16T16:28:51;4.40;;;1.60;;
72517;SDS011;60540;51.178;6.738;2022-10-16T16:31:18;4.15;;;2.13;;
72517;SDS011;60540;51.178;6.738;2022-10-16T16:33:44;3.22;;;1.90;;
72517;SDS011;60540;51.178;6.738;2022-10-16T16:36:11;4.57;;;3.08;;
72517;SDS011;60540;51.178;6.738;2022-10-16T16:38:37;3.90;;;2.10;;
72517;SDS011;60540;51.178;6.738;2022-10-16T16:41:16;4.68;;;1.85;;
72517;SDS011;60540;51.178;6.738;2022-10-16T16:43:43;4.03;;;1.95;;
72517;SDS011;60540;51.178;6.738;2022-10-16T16:46:09;2.78;;;1.50;;
72517;SDS011;60540;51.178;6.738;2022-10-16T16:48:34;3.60;;;2.10;;